Soap Lake, WA

3:33 PM PDT on August 30, 2014 (GMT -0700)
Ephrata Municipal | Change Station
CLOSE
Current Station
Airport
Location: Ephrata,
Elevation: 1273 ft
Nearby Weather Stations

Elev 1273 ft 47.31 °N, 119.52 °W | Updated 40 minutes ago

Overcast
Overcast
75 °F
Feels Like 75 °F
N
13
Wind Variable Wind from NW

Today
High -- | Low -- °F
--% Chance of Precip.
Yesterday
High -- | Low -- °F
Precip. -- in
6:14 AM 7:41 PM
Waxing Crescent, 25% visible
Pressure 29.80 in
Visibility 10.0 miles
Clouds Mostly Cloudy 8000 ft
Overcast 10000 ft
Dew Point 46 °F
Humidity 36%
Rainfall 0.00 in
Snow Depth Not available.
UV 2 out of 12
Pollen 4.50 out of 12
Air Quality Not available.
Flu Activity Not available.
METAR KEPH 302153Z AUTO 31011KT 10SM BKN080 OVC100 24/08 A2981 RMK AO2 SLP089 T02390078

More Conditions Fewer Conditions

Pressure 29.80 in
Visibility 10.0 miles
Clouds Mostly Cloudy 8000 ft
Overcast 10000 ft
Dew Point 46 °F
Humidity 36%
Rainfall 0.00 in
Snow Depth Not available.
UV 2 out of 12
Pollen 4.50 out of 12
Air Quality Not available.
Flu Activity Not available.
METAR KEPH 302153Z AUTO 31011KT 10SM BKN080 OVC100 24/08 A2981 RMK AO2 SLP089 T02390078

More Conditions Fewer Conditions

10-Day Weather Forecast

Almanac

Astronomy

Aug. 30, 2014 Rise Set
Actual Time 6:14 AM PDT 7:41 PM PDT
Civil Twilight 5:42 AM PDT 8:13 PM PDT
Nautical Twilight 5:03 AM PDT 8:52 PM PDT
Astronomical Twilight 4:21 AM PDT 9:33 PM PDT
Moon 11:28 AM PDT 9:55 PM PDT
Length of Visible Light 14h 31m
Length of Day
13h 27m
Tomorrow will be 3m 17s shorter.
Waxing Crescent, 25% of the Moon is Illuminated
Today
Waxing Crescent
Sep 2
First Quarter
Sep 8
Full
Sep 15
Last Quarter
Sep 24
New

Today's Extremes

State Highs State Lows

Community

WunderPhotos

Upload Photos

1,748,657 photos uploaded!

WunderBlogs® & News

Nearby

Snow Depth

Station Depth Elevation
Grouse Camp 0 in 5380 ft
Blewett Pass 0 in 4270 ft
Moses Mountain 0 in 5300 ft
Sasse Ridge 0 in 4200 ft
Stevens Pass 0 in 4070 ft

Earthquake Activity

City Distance Mag. Time & Date
No recent earthquake activity has been reported nearby.
Minimum magnitude displayed is 2.5.

Coastal Water Temperatures

Place Temperature
No Stations Reporting

Nearby Weather Stations